sensor_id;sensor_type;location;lat;lon;timestamp;pressure;altitude;pressure_sealevel;temperature;humidity
20424;BME280;10371;49.042;8.002;2022-07-30T00:00:23;99882.47;;;21.78;nan
20424;BME280;10371;49.042;8.002;2022-07-30T00:01:23;99887.53;;;21.73;nan
20424;BME280;10371;49.042;8.002;2022-07-30T00:02:24;99886.09;;;21.70;nan
20424;BME280;10371;49.042;8.002;2022-07-30T00:03:24;99888.97;;;21.69;nan
20424;BME280;10371;49.042;8.002;2022-07-30T00:04:26;99883.22;;;21.65;nan
20424;BME280;10371;49.042;8.002;2022-07-30T00:05:26;99885.81;;;21.58;nan
20424;BME280;10371;49.042;8.002;2022-07-30T00:06:27;99893.97;;;21.57;nan
20424;BME280;10371;49.042;8.002;2022-07-30T00:07:27;99895.38;;;21.53;nan
20424;BME280;10371;49.042;8.002;2022-07-30T00:08:27;99891.47;;;21.49;nan
20424;BME280;10371;49.042;8.002;2022-07-30T00:09:28;99888.34;;;21.38;nan
20424;BME280;10371;49.042;8.002;2022-07-30T00:10:28;99900.19;;;21.42;nan
20424;BME280;10371;49.042;8.002;2022-07-30T00:11:28;99899.56;;;21.40;nan
20424;BME280;10371;49.042;8.002;2022-07-30T00:12:29;99891.34;;;21.35;nan
20424;BME280;10371;49.042;8.002;2022-07-30T00:13:29;99892.75;;;21.31;nan
20424;BME280;10371;49.042;8.002;2022-07-30T00:14:30;99895.75;;;21.28;nan
20424;BME280;10371;49.042;8.002;2022-07-30T00:15:30;99896.53;;;21.22;nan
20424;BME280;10371;49.042;8.002;2022-07-30T00:16:30;99897.72;;;21.19;nan
20424;BME280;10371;49.042;8.002;2022-07-30T00:17:32;99893.03;;;21.15;nan
20424;BME280;10371;49.042;8.002;2022-07-30T00:18:32;99895.41;;;21.10;nan
20424;BME280;10371;49.042;8.002;2022-07-30T00:19:33;99898.25;;;21.08;nan
20424;BME280;10371;49.042;8.002;2022-07-30T00:20:33;99897.81;;;21.05;nan
20424;BME280;10371;49.042;8.002;2022-07-30T00:21:34;99897.38;;;21.01;nan
20424;BME280;10371;49.042;8.002;2022-07-30T00:22:34;99896.09;;;20.97;nan
20424;BME280;10371;49.042;8.002;2022-07-30T00:23:34;99894.22;;;20.91;nan
20424;BME280;10371;49.042;8.002;2022-07-30T00:24:34;99890.69;;;20.84;nan
20424;BME280;10371;49.042;8.002;2022-07-30T00:25:35;99898.19;;;20.80;nan
20424;BME280;10371;49.042;8.002;2022-07-30T00:26:35;99894.28;;;20.76;nan
20424;BME280;10371;49.042;8.002;2022-07-30T00:27:35;99901.97;;;20.71;nan
20424;BME280;10371;49.042;8.002;2022-07-30T00:28:36;99890.09;;;20.67;nan
20424;BME280;10371;49.042;8.002;2022-07-30T00:29:36;99900.47;;;20.62;nan
20424;BME280;10371;49.042;8.002;2022-07-30T00:30:36;99895.88;;;20.56;nan
20424;BME280;10371;49.042;8.002;2022-07-30T00:31:37;99888.69;;;20.49;nan
20424;BME280;10371;49.042;8.002;2022-07-30T00:32:38;99898.81;;;20.46;nan
20424;BME280;10371;49.042;8.002;2022-07-30T00:33:38;99891.44;;;20.41;nan
20424;BME280;10371;49.042;8.002;2022-07-30T00:34:38;99895.84;;;20.34;nan
20424;BME280;10371;49.042;8.002;2022-07-30T00:35:38;99897.84;;;20.32;nan
20424;BME280;10371;49.042;8.002;2022-07-30T00:36:39;99899.41;;;20.26;nan
20424;BME280;10371;49.042;8.002;2022-07-30T00:37:40;99894.88;;;20.20;nan
20424;BME280;10371;49.042;8.002;2022-07-30T00:38:40;99893.56;;;20.16;nan
20424;BME280;10371;49.042;8.002;2022-07-30T00:39:40;99895.56;;;20.14;nan
20424;BME280;10371;49.042;8.002;2022-07-30T00:40:41;99891.50;;;20.12;nan
20424;BME280;10371;49.042;8.002;2022-07-30T00:41:58;99896.31;;;20.08;nan
20424;BME280;10371;49.042;8.002;2022-07-30T00:42:59;99891.22;;;20.06;nan
20424;BME280;10371;49.042;8.002;2022-07-30T00:43:59;99895.88;;;20.04;nan
20424;BME280;10371;49.042;8.002;2022-07-30T00:44:59;99888.75;;;20.05;nan
20424;BME280;10371;49.042;8.002;2022-07-30T00:45:59;99884.66;;;20.02;nan
20424;BME280;10371;49.042;8.002;2022-07-30T00:47:00;99892.22;;;20.05;nan
20424;BME280;10371;49.042;8.002;2022-07-30T00:48:00;99883.66;;;20.03;nan
20424;BME280;10371;49.042;8.002;2022-07-30T00:49:00;99891.78;;;20.02;nan
20424;BME280;10371;49.042;8.002;2022-07-30T00:50:01;99889.31;;;20.00;nan
20424;BME280;10371;49.042;8.002;2022-07-30T00:51:03;99886.22;;;19.97;nan
20424;BME280;10371;49.042;8.002;2022-07-30T00:52:03;99883.50;;;19.90;nan
20424;BME280;10371;49.042;8.002;2022-07-30T00:53:05;99895.03;;;19.89;nan
20424;BME280;10371;49.042;8.002;2022-07-30T00:54:05;99890.13;;;19.86;nan
20424;BME280;10371;49.042;8.002;2022-07-30T00:55:08;99881.59;;;19.84;nan
20424;BME280;10371;49.042;8.002;2022-07-30T00:56:08;99889.50;;;19.84;nan
20424;BME280;10371;49.042;8.002;2022-07-30T00:57:09;99886.66;;;19.85;nan
20424;BME280;10371;49.042;8.002;2022-07-30T00:58:09;99888.50;;;19.85;nan
20424;BME280;10371;49.042;8.002;2022-07-30T00:59:09;99883.38;;;19.83;nan
20424;BME280;10371;49.042;8.002;2022-07-30T01:00:12;99888.31;;;19.86;nan
20424;BME280;10371;49.042;8.002;2022-07-30T01:01:13;99891.13;;;19.85;nan
20424;BME280;10371;49.042;8.002;2022-07-30T01:02:13;99890.94;;;20.01;nan
20424;BME280;10371;49.042;8.002;2022-07-30T01:03:14;99878.72;;;20.15;nan
20424;BME280;10371;49.042;8.002;2022-07-30T01:04:14;99883.97;;;20.30;nan
20424;BME280;10371;49.042;8.002;2022-07-30T01:05:15;99880.66;;;20.58;nan
20424;BME280;10371;49.042;8.002;2022-07-30T01:06:15;99886.41;;;20.46;nan
20424;BME280;10371;49.042;8.002;2022-07-30T01:07:15;99883.53;;;20.26;nan
20424;BME280;10371;49.042;8.002;2022-07-30T01:08:16;99883.81;;;20.17;nan
20424;BME280;10371;49.042;8.002;2022-07-30T01:09:16;99884.94;;;20.07;nan
20424;BME280;10371;49.042;8.002;2022-07-30T01:10:17;99890.13;;;20.01;nan
20424;BME280;10371;49.042;8.002;2022-07-30T01:11:17;99890.41;;;19.91;nan
20424;BME280;10371;49.042;8.002;2022-07-30T01:12:19;99884.03;;;19.71;nan
20424;BME280;10371;49.042;8.002;2022-07-30T01:13:22;99894.16;;;19.67;nan
20424;BME280;10371;49.042;8.002;2022-07-30T01:14:23;99890.00;;;19.64;nan
20424;BME280;10371;49.042;8.002;2022-07-30T01:15:24;99880.50;;;19.55;nan
20424;BME280;10371;49.042;8.002;2022-07-30T01:16:24;99882.06;;;19.50;nan
20424;BME280;10371;49.042;8.002;2022-07-30T01:17:25;99882.97;;;19.42;nan
20424;BME280;10371;49.042;8.002;2022-07-30T01:18:28;99874.13;;;19.35;nan
20424;BME280;10371;49.042;8.002;2022-07-30T01:19:51;99877.19;;;19.24;nan
20424;BME280;10371;49.042;8.002;2022-07-30T01:21:04;99884.00;;;19.18;nan
20424;BME280;10371;49.042;8.002;2022-07-30T01:23:30;99889.50;;;19.08;nan
20424;BME280;10371;49.042;8.002;2022-07-30T01:26:16;99884.38;;;18.92;nan
20424;BME280;10371;49.042;8.002;2022-07-30T01:27:18;99883.44;;;18.85;nan
20424;BME280;10371;49.042;8.002;2022-07-30T01:28:22;99883.78;;;18.82;nan
20424;BME280;10371;49.042;8.002;2022-07-30T01:29:24;99889.41;;;18.79;nan
20424;BME280;10371;49.042;8.002;2022-07-30T01:30:28;99885.47;;;18.74;nan
20424;BME280;10371;49.042;8.002;2022-07-30T01:31:31;99886.16;;;18.68;nan
20424;BME280;10371;49.042;8.002;2022-07-30T01:32:33;99894.06;;;18.68;nan
20424;BME280;10371;49.042;8.002;2022-07-30T01:33:38;99889.13;;;18.65;nan
20424;BME280;10371;49.042;8.002;2022-07-30T01:34:39;99885.22;;;18.61;nan
20424;BME280;10371;49.042;8.002;2022-07-30T01:35:44;99888.03;;;18.60;nan
20424;BME280;10371;49.042;8.002;2022-07-30T01:36:45;99887.72;;;18.54;nan
20424;BME280;10371;49.042;8.002;2022-07-30T01:37:46;99884.78;;;18.49;nan
20424;BME280;10371;49.042;8.002;2022-07-30T01:38:48;99876.41;;;18.46;nan
20424;BME280;10371;49.042;8.002;2022-07-30T01:39:51;99881.00;;;18.44;nan
20424;BME280;10371;49.042;8.002;2022-07-30T01:40:53;99885.81;;;18.40;nan
20424;BME280;10371;49.042;8.002;2022-07-30T01:41:55;99878.44;;;18.36;nan
20424;BME280;10371;49.042;8.002;2022-07-30T01:42:58;99891.78;;;18.34;nan
20424;BME280;10371;49.042;8.002;2022-07-30T01:44:01;99885.22;;;18.30;nan
20424;BME280;10371;49.042;8.002;2022-07-30T01:45:03;99881.09;;;18.27;nan
20424;BME280;10371;49.042;8.002;2022-07-30T01:46:05;99886.38;;;18.27;nan
20424;BME280;10371;49.042;8.002;2022-07-30T01:47:08;99883.94;;;18.26;nan
20424;BME280;10371;49.042;8.002;2022-07-30T01:48:12;99894.47;;;18.26;nan
20424;BME280;10371;49.042;8.002;2022-07-30T01:49:14;99890.81;;;18.27;nan
20424;BME280;10371;49.042;8.002;2022-07-30T01:50:15;99884.94;;;18.25;nan
20424;BME280;10371;49.042;8.002;2022-07-30T01:51:17;99881.78;;;18.21;nan
20424;BME280;10371;49.042;8.002;2022-07-30T01:52:18;99900.44;;;18.20;nan
20424;BME280;10371;49.042;8.002;2022-07-30T01:53:22;99885.78;;;18.17;nan
20424;BME280;10371;49.042;8.002;2022-07-30T01:54:23;99892.22;;;18.15;nan
20424;BME280;10371;49.042;8.002;2022-07-30T01:55:38;99895.34;;;18.10;nan
20424;BME280;10371;49.042;8.002;2022-07-30T01:56:40;99900.81;;;18.08;nan
20424;BME280;10371;49.042;8.002;2022-07-30T01:57:42;99900.97;;;18.07;nan
20424;BME280;10371;49.042;8.002;2022-07-30T01:58:45;99905.06;;;18.09;nan
20424;BME280;10371;49.042;8.002;2022-07-30T01:59:49;99901.16;;;18.05;nan
20424;BME280;10371;49.042;8.002;2022-07-30T02:00:54;99897.84;;;18.03;nan
20424;BME280;10371;49.042;8.002;2022-07-30T02:01:55;99897.66;;;18.05;nan
20424;BME280;10371;49.042;8.002;2022-07-30T02:02:58;99903.78;;;18.05;nan
20424;BME280;10371;49.042;8.002;2022-07-30T02:04:01;99905.41;;;18.06;nan
20424;BME280;10371;49.042;8.002;2022-07-30T02:05:01;99901.44;;;18.11;nan
20424;BME280;10371;49.042;8.002;2022-07-30T02:06:07;99904.41;;;18.07;nan
20424;BME280;10371;49.042;8.002;2022-07-30T02:07:18;99902.63;;;18.08;nan
20424;BME280;10371;49.042;8.002;2022-07-30T02:08:29;99905.06;;;18.09;nan
20424;BME280;10371;49.042;8.002;2022-07-30T02:09:37;99902.28;;;18.11;nan
20424;BME280;10371;49.042;8.002;2022-07-30T02:10:47;99900.81;;;18.08;nan
20424;BME280;10371;49.042;8.002;2022-07-30T02:11:49;99910.34;;;18.09;nan
20424;BME280;10371;49.042;8.002;2022-07-30T02:13:10;99906.41;;;18.05;nan
20424;BME280;10371;49.042;8.002;2022-07-30T02:14:23;99904.59;;;18.06;nan
20424;BME280;10371;49.042;8.002;2022-07-30T02:15:28;99907.03;;;18.07;nan
20424;BME280;10371;49.042;8.002;2022-07-30T02:16:35;99909.53;;;18.09;nan
20424;BME280;10371;49.042;8.002;2022-07-30T02:18:05;99904.25;;;18.09;nan
20424;BME280;10371;49.042;8.002;2022-07-30T02:19:15;99908.38;;;18.12;nan
20424;BME280;10371;49.042;8.002;2022-07-30T02:20:16;99910.81;;;18.13;nan
20424;BME280;10371;49.042;8.002;2022-07-30T02:21:19;99912.47;;;18.14;nan
20424;BME280;10371;49.042;8.002;2022-07-30T02:22:20;99916.06;;;18.13;nan
20424;BME280;10371;49.042;8.002;2022-07-30T02:23:22;99912.81;;;18.11;nan
20424;BME280;10371;49.042;8.002;2022-07-30T02:24:27;99910.81;;;18.13;nan
20424;BME280;10371;49.042;8.002;2022-07-30T02:25:31;99910.81;;;18.13;nan
20424;BME280;10371;49.042;8.002;2022-07-30T02:26:33;99909.03;;;18.14;nan
20424;BME280;10371;49.042;8.002;2022-07-30T02:27:36;99918.72;;;18.13;nan
20424;BME280;10371;49.042;8.002;2022-07-30T02:28:40;99921.69;;;18.10;nan
20424;BME280;10371;49.042;8.002;2022-07-30T02:29:44;99914.78;;;18.09;nan
20424;BME280;10371;49.042;8.002;2022-07-30T02:30:49;99911.50;;;18.07;nan
20424;BME280;10371;49.042;8.002;2022-07-30T02:31:53;99920.22;;;18.07;nan
20424;BME280;10371;49.042;8.002;2022-07-30T02:33:06;99923.69;;;18.08;nan
20424;BME280;10371;49.042;8.002;2022-07-30T02:34:09;99925.34;;;18.09;nan
20424;BME280;10371;49.042;8.002;2022-07-30T02:35:18;99920.88;;;18.09;nan
20424;BME280;10371;49.042;8.002;2022-07-30T02:36:19;99922.69;;;18.09;nan
20424;BME280;10371;49.042;8.002;2022-07-30T02:37:21;99926.16;;;18.09;nan
20424;BME280;10371;49.042;8.002;2022-07-30T02:38:23;99927.97;;;18.09;nan
20424;BME280;10371;49.042;8.002;2022-07-30T02:39:27;99919.41;;;18.07;nan
20424;BME280;10371;49.042;8.002;2022-07-30T02:40:30;99925.66;;;18.06;nan
20424;BME280;10371;49.042;8.002;2022-07-30T02:41:31;99930.13;;;18.05;nan
20424;BME280;10371;49.042;8.002;2022-07-30T02:42:32;99926.66;;;18.05;nan
20424;BME280;10371;49.042;8.002;2022-07-30T02:43:34;99926.00;;;18.03;nan
20424;BME280;10371;49.042;8.002;2022-07-30T02:44:36;99923.72;;;18.00;nan
20424;BME280;10371;49.042;8.002;2022-07-30T02:45:37;99929.97;;;17.99;nan
20424;BME280;10371;49.042;8.002;2022-07-30T02:46:38;99925.03;;;17.96;nan
20424;BME280;10371;49.042;8.002;2022-07-30T02:47:40;99930.31;;;17.96;nan
20424;BME280;10371;49.042;8.002;2022-07-30T02:48:41;99933.13;;;17.94;nan
20424;BME280;10371;49.042;8.002;2022-07-30T02:49:43;99939.38;;;17.93;nan
20424;BME280;10371;49.042;8.002;2022-07-30T02:50:45;99933.28;;;17.84;nan
20424;BME280;10371;49.042;8.002;2022-07-30T02:51:48;99932.94;;;17.71;nan
20424;BME280;10371;49.042;8.002;2022-07-30T02:52:50;99941.84;;;17.70;nan
20424;BME280;10371;49.042;8.002;2022-07-30T02:53:52;99928.84;;;17.69;nan
20424;BME280;10371;49.042;8.002;2022-07-30T02:54:55;99938.56;;;17.68;nan
20424;BME280;10371;49.042;8.002;2022-07-30T02:55:58;99936.09;;;17.67;nan
20424;BME280;10371;49.042;8.002;2022-07-30T02:57:00;99938.06;;;17.64;nan
20424;BME280;10371;49.042;8.002;2022-07-30T02:58:05;99937.91;;;17.66;nan
20424;BME280;10371;49.042;8.002;2022-07-30T02:59:07;99938.06;;;17.64;nan
20424;BME280;10371;49.042;8.002;2022-07-30T03:00:10;99941.88;;;17.62;nan
20424;BME280;10371;49.042;8.002;2022-07-30T03:01:12;99942.88;;;17.61;nan
20424;BME280;10371;49.042;8.002;2022-07-30T03:02:16;99940.22;;;17.61;nan
20424;BME280;10371;49.042;8.002;2022-07-30T03:03:16;99938.91;;;17.57;nan
20424;BME280;10371;49.042;8.002;2022-07-30T03:04:19;99936.75;;;17.52;nan
20424;BME280;10371;49.042;8.002;2022-07-30T03:05:21;99938.09;;;17.48;nan
20424;BME280;10371;49.042;8.002;2022-07-30T03:06:23;99941.72;;;17.47;nan
20424;BME280;10371;49.042;8.002;2022-07-30T03:07:26;99938.75;;;17.42;nan
20424;BME280;10371;49.042;8.002;2022-07-30T03:08:27;99944.34;;;17.39;nan
20424;BME280;10371;49.042;8.002;2022-07-30T03:09:29;99938.44;;;17.37;nan
20424;BME280;10371;49.042;8.002;2022-07-30T03:10:30;99949.94;;;17.36;nan
20424;BME280;10371;49.042;8.002;2022-07-30T03:11:32;99940.72;;;17.32;nan
20424;BME280;10371;49.042;8.002;2022-07-30T03:12:34;99942.06;;;17.28;nan
20424;BME280;10371;49.042;8.002;2022-07-30T03:13:35;99950.09;;;17.26;nan
20424;BME280;10371;49.042;8.002;2022-07-30T03:14:35;99953.72;;;17.25;nan
20424;BME280;10371;49.042;8.002;2022-07-30T03:15:36;99946.50;;;17.19;nan
20424;BME280;10371;49.042;8.002;2022-07-30T03:16:39;99946.16;;;17.14;nan
20424;BME280;10371;49.042;8.002;2022-07-30T03:17:45;99946.28;;;17.04;nan
20424;BME280;10371;49.042;8.002;2022-07-30T03:18:48;99954.03;;;16.97;nan
20424;BME280;10371;49.042;8.002;2022-07-30T03:19:49;99948.75;;;16.89;nan
20424;BME280;10371;49.042;8.002;2022-07-30T03:20:53;99950.72;;;16.87;nan
20424;BME280;10371;49.042;8.002;2022-07-30T03:21:55;99943.97;;;16.85;nan
20424;BME280;10371;49.042;8.002;2022-07-30T03:22:57;99957.91;;;16.85;nan
20424;BME280;10371;49.042;8.002;2022-07-30T03:23:59;99953.00;;;16.82;nan
20424;BME280;10371;49.042;8.002;2022-07-30T03:25:02;99957.59;;;16.80;nan
20424;BME280;10371;49.042;8.002;2022-07-30T03:26:07;99963.31;;;16.75;nan
20424;BME280;10371;49.042;8.002;2022-07-30T03:27:08;99960.97;;;16.64;nan
20424;BME280;10371;49.042;8.002;2022-07-30T03:28:09;99954.19;;;16.53;nan
20424;BME280;10371;49.042;8.002;2022-07-30T03:29:10;99955.16;;;16.44;nan
20424;BME280;10371;49.042;8.002;2022-07-30T03:30:12;99965.00;;;16.42;nan
20424;BME280;10371;49.042;8.002;2022-07-30T03:31:13;99963.38;;;16.41;nan
20424;BME280;10371;49.042;8.002;2022-07-30T03:32:15;99962.69;;;16.39;nan
20424;BME280;10371;49.042;8.002;2022-07-30T03:33:15;99970.72;;;16.38;nan
20424;BME280;10371;49.042;8.002;2022-07-30T03:34:17;99955.94;;;16.37;nan
20424;BME280;10371;49.042;8.002;2022-07-30T03:35:21;99961.34;;;16.35;nan
20424;BME280;10371;49.042;8.002;2022-07-30T03:36:24;99964.81;;;16.36;nan
20424;BME280;10371;49.042;8.002;2022-07-30T03:37:26;99968.25;;;16.36;nan
20424;BME280;10371;49.042;8.002;2022-07-30T03:38:26;99960.69;;;16.33;nan
20424;BME280;10371;49.042;8.002;2022-07-30T03:39:27;99963.63;;;16.30;nan
20424;BME280;10371;49.042;8.002;2022-07-30T03:40:28;99963.47;;;16.31;nan
20424;BME280;10371;49.042;8.002;2022-07-30T03:41:29;99964.47;;;16.30;nan
20424;BME280;10371;49.042;8.002;2022-07-30T03:42:31;99968.25;;;16.36;nan
20424;BME280;10371;49.042;8.002;2022-07-30T03:43:32;99956.41;;;16.32;nan
20424;BME280;10371;49.042;8.002;2022-07-30T03:44:34;99966.59;;;16.35;nan
20424;BME280;10371;49.042;8.002;2022-07-30T03:45:40;99964.97;;;16.34;nan
20424;BME280;10371;49.042;8.002;2022-07-30T03:46:41;99964.28;;;16.32;nan
20424;BME280;10371;49.042;8.002;2022-07-30T03:47:43;99968.72;;;16.31;nan
20424;BME280;10371;49.042;8.002;2022-07-30T03:48:44;99966.91;;;16.32;nan
20424;BME280;10371;49.042;8.002;2022-07-30T03:49:45;99970.22;;;16.34;nan
20424;BME280;10371;49.042;8.002;2022-07-30T03:50:45;99970.38;;;16.33;nan
20424;BME280;10371;49.042;8.002;2022-07-30T03:51:46;99973.16;;;16.31;nan
20424;BME280;10371;49.042;8.002;2022-07-30T03:52:48;99969.72;;;16.30;nan
20424;BME280;10371;49.042;8.002;2022-07-30T03:53:49;99971.53;;;16.30;nan
20424;BME280;10371;49.042;8.002;2022-07-30T03:54:50;99979.41;;;16.30;nan
20424;BME280;10371;49.042;8.002;2022-07-30T03:55:51;99968.72;;;16.31;nan
20424;BME280;10371;49.042;8.002;2022-07-30T03:56:52;99975.78;;;16.31;nan
20424;BME280;10371;49.042;8.002;2022-07-30T03:57:53;99972.16;;;16.32;nan
20424;BME280;10371;49.042;8.002;2022-07-30T03:58:53;99976.78;;;16.30;nan
20424;BME280;10371;49.042;8.002;2022-07-30T03:59:53;99972.47;;;16.29;nan
20424;BME280;10371;49.042;8.002;2022-07-30T04:00:54;99979.41;;;16.30;nan
20424;BME280;10371;49.042;8.002;2022-07-30T04:01:59;99982.69;;;16.32;nan
20424;BME280;10371;49.042;8.002;2022-07-30T04:03:00;99981.03;;;16.31;nan
20424;BME280;10371;49.042;8.002;2022-07-30T04:04:07;99982.69;;;16.32;nan
20424;BME280;10371;49.042;8.002;2022-07-30T04:05:08;99980.91;;;16.33;nan
20424;BME280;10371;49.042;8.002;2022-07-30T04:06:08;99986.78;;;16.35;nan
20424;BME280;10371;49.042;8.002;2022-07-30T04:07:09;99986.16;;;16.33;nan
20424;BME280;10371;49.042;8.002;2022-07-30T04:08:09;99984.50;;;16.31;nan
20424;BME280;10371;49.042;8.002;2022-07-30T04:09:11;99985.97;;;16.34;nan
20424;BME280;10371;49.042;8.002;2022-07-30T04:10:12;99985.97;;;16.34;nan
20424;BME280;10371;49.042;8.002;2022-07-30T04:11:13;99990.25;;;16.35;nan
20424;BME280;10371;49.042;8.002;2022-07-30T04:12:13;99990.25;;;16.35;nan
20424;BME280;10371;49.042;8.002;2022-07-30T04:13:14;99990.59;;;16.40;nan
20424;BME280;10371;49.042;8.002;2022-07-30T04:14:14;99993.09;;;16.42;nan
20424;BME280;10371;49.042;8.002;2022-07-30T04:15:15;99995.53;;;16.43;nan
20424;BME280;10371;49.042;8.002;2022-07-30T04:16:21;99996.88;;;16.47;nan
20424;BME280;10371;49.042;8.002;2022-07-30T04:17:39;99998.38;;;16.50;nan
20424;BME280;10371;49.042;8.002;2022-07-30T04:18:43;100000.00;;;16.51;nan
20424;BME280;10371;49.042;8.002;2022-07-30T04:19:56;99992.00;;;16.52;nan
20424;BME280;10371;49.042;8.002;2022-07-30T04:21:00;99993.63;;;16.53;nan
20424;BME280;10371;49.042;8.002;2022-07-30T04:22:04;99991.81;;;16.54;nan
20424;BME280;10371;49.042;8.002;2022-07-30T04:23:05;99985.75;;;16.53;nan
20424;BME280;10371;49.042;8.002;2022-07-30T04:24:07;100003.81;;;16.57;nan
20424;BME280;10371;49.042;8.002;2022-07-30T04:25:09;99998.56;;;16.57;nan
20424;BME280;10371;49.042;8.002;2022-07-30T04:26:10;99996.59;;;16.59;nan
20424;BME280;10371;49.042;8.002;2022-07-30T04:27:11;100000.88;;;16.60;nan
20424;BME280;10371;49.042;8.002;2022-07-30T04:28:12;99998.09;;;16.61;nan
20424;BME280;10371;49.042;8.002;2022-07-30T04:29:14;99996.97;;;16.64;nan
20424;BME280;10371;49.042;8.002;2022-07-30T04:30:15;100001.22;;;16.65;nan
20424;BME280;10371;49.042;8.002;2022-07-30T04:31:15;99999.94;;;16.69;nan
20424;BME280;10371;49.042;8.002;2022-07-30T04:32:17;99997.00;;;16.72;nan
20424;BME280;10371;49.042;8.002;2022-07-30T04:33:17;99997.19;;;16.79;nan
20424;BME280;10371;49.042;8.002;2022-07-30T04:34:17;99994.25;;;16.82;nan
20424;BME280;10371;49.042;8.002;2022-07-30T04:35:26;100000.84;;;16.86;nan
20424;BME280;10371;49.042;8.002;2022-07-30T04:36:27;100000.19;;;16.92;nan
20424;BME280;10371;49.042;8.002;2022-07-30T04:37:27;100006.78;;;16.96;nan
20424;BME280;10371;49.042;8.002;2022-07-30T04:38:27;100003.81;;;16.99;nan
20424;BME280;10371;49.042;8.002;2022-07-30T04:39:28;100008.28;;;17.07;nan
20424;BME280;10371;49.042;8.002;2022-07-30T04:40:29;100008.16;;;17.16;nan
20424;BME280;10371;49.042;8.002;2022-07-30T04:41:30;100013.91;;;17.28;nan
20424;BME280;10371;49.042;8.002;2022-07-30T04:42:30;100001.09;;;17.41;nan
20424;BME280;10371;49.042;8.002;2022-07-30T04:43:31;100002.25;;;17.55;nan
20424;BME280;10371;49.042;8.002;2022-07-30T04:44:31;100001.94;;;17.67;nan
20424;BME280;10371;49.042;8.002;2022-07-30T04:45:31;100004.91;;;17.80;nan
20424;BME280;10371;49.042;8.002;2022-07-30T04:46:32;100006.03;;;17.94;nan
20424;BME280;10371;49.042;8.002;2022-07-30T04:47:32;100008.31;;;18.05;nan
20424;BME280;10371;49.042;8.002;2022-07-30T04:48:32;100004.50;;;18.16;nan
20424;BME280;10371;49.042;8.002;2022-07-30T04:49:33;100008.47;;;18.28;nan
20424;BME280;10371;49.042;8.002;2022-07-30T04:50:37;100009.91;;;18.39;nan
20424;BME280;10371;49.042;8.002;2022-07-30T04:51:40;100007.06;;;18.48;nan
20424;BME280;10371;49.042;8.002;2022-07-30T04:52:41;100014.75;;;18.58;nan
20424;BME280;10371;49.042;8.002;2022-07-30T04:53:42;100015.56;;;18.67;nan
20424;BME280;10371;49.042;8.002;2022-07-30T04:54:57;100015.38;;;18.77;nan
20424;BME280;10371;49.042;8.002;2022-07-30T04:55:58;100018.63;;;18.87;nan
20424;BME280;10371;49.042;8.002;2022-07-30T04:57:00;100020.41;;;18.94;nan
20424;BME280;10371;49.042;8.002;2022-07-30T04:58:01;100015.41;;;19.00;nan
20424;BME280;10371;49.042;8.002;2022-07-30T04:59:02;100016.19;;;19.08;nan
20424;BME280;10371;49.042;8.002;2022-07-30T05:00:04;100021.59;;;19.15;nan
20424;BME280;10371;49.042;8.002;2022-07-30T05:01:06;100018.09;;;19.23;nan
20424;BME280;10371;49.042;8.002;2022-07-30T05:02:09;100015.56;;;19.29;nan
20424;BME280;10371;49.042;8.002;2022-07-30T05:03:11;100014.69;;;19.37;nan
20424;BME280;10371;49.042;8.002;2022-07-30T05:04:14;100017.63;;;19.42;nan
20424;BME280;10371;49.042;8.002;2022-07-30T05:05:15;100013.28;;;19.49;nan
20424;BME280;10371;49.042;8.002;2022-07-30T05:06:18;100016.22;;;19.54;nan
20424;BME280;10371;49.042;8.002;2022-07-30T05:07:19;100018.78;;;19.62;nan
20424;BME280;10371;49.042;8.002;2022-07-30T05:08:22;100021.56;;;19.69;nan
20424;BME280;10371;49.042;8.002;2022-07-30T05:09:23;100020.03;;;19.75;nan
20424;BME280;10371;49.042;8.002;2022-07-30T05:10:24;100019.34;;;19.81;nan
20424;BME280;10371;49.042;8.002;2022-07-30T05:11:24;100017.59;;;19.88;nan
20424;BME280;10371;49.042;8.002;2022-07-30T05:12:35;100022.81;;;19.96;nan
20424;BME280;10371;49.042;8.002;2022-07-30T05:13:40;100026.75;;;20.00;nan
20424;BME280;10371;49.042;8.002;2022-07-30T05:14:41;100019.72;;;20.07;nan
20424;BME280;10371;49.042;8.002;2022-07-30T05:15:42;100026.47;;;20.10;nan
20424;BME280;10371;49.042;8.002;2022-07-30T05:16:45;100026.13;;;20.13;nan
20424;BME280;10371;49.042;8.002;2022-07-30T05:17:45;100022.13;;;20.17;nan
20424;BME280;10371;49.042;8.002;2022-07-30T05:18:45;100025.22;;;20.21;nan
20424;BME280;10371;49.042;8.002;2022-07-30T05:19:45;100032.13;;;20.22;nan
20424;BME280;10371;49.042;8.002;2022-07-30T05:20:46;100025.88;;;20.23;nan
20424;BME280;10371;49.042;8.002;2022-07-30T05:21:46;100031.97;;;20.23;nan
20424;BME280;10371;49.042;8.002;2022-07-30T05:22:46;100029.13;;;20.25;nan
20424;BME280;10371;49.042;8.002;2022-07-30T05:23:47;100030.78;;;20.26;nan
20424;BME280;10371;49.042;8.002;2022-07-30T05:24:47;100030.78;;;20.26;nan
20424;BME280;10371;49.042;8.002;2022-07-30T05:25:47;100034.41;;;20.25;nan
20424;BME280;10371;49.042;8.002;2022-07-30T05:26:48;100029.59;;;20.28;nan
20424;BME280;10371;49.042;8.002;2022-07-30T05:27:48;100037.97;;;20.32;nan
20424;BME280;10371;49.042;8.002;2022-07-30T05:28:50;100030.88;;;20.33;nan
20424;BME280;10371;49.042;8.002;2022-07-30T05:29:50;100036.59;;;20.36;nan
20424;BME280;10371;49.042;8.002;2022-07-30T05:30:52;100030.78;;;20.41;nan
20424;BME280;10371;49.042;8.002;2022-07-30T05:31:52;100028.22;;;20.47;nan
20424;BME280;10371;49.042;8.002;2022-07-30T05:32:53;100028.69;;;20.51;nan
20424;BME280;10371;49.042;8.002;2022-07-30T05:33:53;100029.97;;;20.55;nan
20424;BME280;10371;49.042;8.002;2022-07-30T05:34:53;100024.44;;;20.65;nan
20424;BME280;10371;49.042;8.002;2022-07-30T05:35:57;100034.25;;;20.71;nan
20424;BME280;10371;49.042;8.002;2022-07-30T05:36:59;100024.56;;;20.78;nan
20424;BME280;10371;49.042;8.002;2022-07-30T05:37:59;100036.50;;;20.89;nan
20424;BME280;10371;49.042;8.002;2022-07-30T05:39:00;100029.66;;;20.94;nan
20424;BME280;10371;49.042;8.002;2022-07-30T05:40:00;100030.56;;;21.02;nan
20424;BME280;10371;49.042;8.002;2022-07-30T05:41:00;100030.44;;;21.10;nan